createdAt,value
2023-01-17T00:02:31.096Z,7.39
2023-01-17T00:07:47.829Z,7.25
2023-01-17T00:12:49.189Z,6.91
2023-01-17T00:17:47.296Z,7.00
2023-01-17T00:23:03.847Z,6.73
2023-01-17T00:28:00.513Z,6.73
2023-01-17T00:32:57.358Z,6.72
2023-01-17T00:38:05.709Z,6.97
2023-01-17T00:43:21.224Z,7.12
2023-01-17T00:48:36.213Z,7.02
2023-01-17T00:53:53.083Z,7.06
2023-01-17T00:59:07.997Z,7.14
2023-01-17T01:04:23.067Z,7.38
2023-01-17T01:09:39.883Z,7.30
2023-01-17T01:14:54.905Z,7.26
2023-01-17T01:20:09.828Z,7.49
2023-01-17T01:25:27.047Z,7.68
2023-01-17T01:30:42.532Z,7.83
2023-01-17T01:35:42.007Z,7.56
2023-01-17T01:40:44.726Z,7.56
2023-01-17T01:45:46.074Z,7.28
2023-01-17T01:50:44.158Z,7.30
2023-01-17T01:55:43.457Z,7.16
2023-01-17T02:00:42.984Z,7.24
2023-01-17T02:05:42.559Z,7.24
2023-01-17T02:10:41.192Z,7.10
2023-01-17T02:15:43.255Z,7.11
2023-01-17T02:20:57.125Z,7.11
2023-01-17T02:26:10.362Z,7.01
2023-01-17T02:31:14.633Z,6.99
2023-01-17T02:36:15.795Z,6.98
2023-01-17T02:41:17.612Z,7.04
2023-01-17T02:46:16.804Z,7.03
2023-01-17T02:51:28.219Z,7.12
2023-01-17T02:56:33.497Z,7.27
2023-01-17T03:01:39.108Z,7.39
2023-01-17T03:06:39.049Z,7.40
2023-01-17T03:11:37.014Z,7.41
2023-01-17T03:16:36.584Z,7.33
2023-01-17T03:21:34.424Z,7.28
2023-01-17T03:26:32.294Z,7.25
2023-01-17T03:31:30.112Z,7.17
2023-01-17T03:36:29.363Z,7.41
2023-01-17T03:41:27.192Z,7.34
2023-01-17T03:46:26.494Z,7.59
2023-01-17T03:51:24.342Z,7.77
2023-01-17T03:56:23.523Z,7.87
2023-01-17T04:01:21.416Z,7.68
2023-01-17T04:06:19.277Z,7.57
2023-01-17T04:11:17.129Z,7.56
2023-01-17T04:16:17.373Z,7.73
2023-01-17T04:21:15.230Z,7.96
2023-01-17T04:26:13.115Z,8.25
2023-01-17T04:31:15.282Z,8.83
2023-01-17T04:36:14.547Z,9.46
2023-01-17T04:41:12.393Z,9.52
2023-01-17T04:46:11.243Z,9.59
2023-01-17T04:51:09.205Z,9.64
2023-01-17T04:56:08.843Z,9.73
2023-01-17T05:01:08.143Z,9.74
2023-01-17T05:06:06.170Z,9.80
2023-01-17T05:11:04.024Z,9.96
2023-01-17T05:16:03.280Z,10.05
2023-01-17T05:21:04.562Z,10.05
2023-01-17T05:26:02.456Z,10.06
2023-01-17T05:31:00.330Z,9.93
2023-01-17T05:35:59.575Z,10.03
2023-01-17T05:40:59.877Z,10.26
2023-01-17T05:45:57.821Z,10.52
2023-01-17T05:50:55.654Z,10.48
2023-01-17T05:55:55.096Z,10.40
2023-01-17T06:01:01.835Z,10.22
2023-01-17T06:05:59.754Z,10.27
2023-01-17T06:11:03.423Z,10.12
2023-01-17T06:16:04.927Z,9.85
2023-01-17T06:21:06.912Z,10.15
2023-01-17T06:26:08.490Z,10.28
2023-01-17T06:31:07.013Z,10.47
2023-01-17T06:36:05.231Z,10.55
2023-01-17T06:41:09.748Z,10.26
2023-01-17T06:46:07.554Z,10.52
2023-01-17T06:51:19.536Z,10.93
2023-01-17T06:56:18.847Z,11.12
2023-01-17T07:01:18.514Z,10.79
2023-01-17T07:06:16.515Z,10.96
2023-01-17T07:11:18.774Z,10.98
2023-01-17T07:16:19.342Z,11.15
2023-01-17T07:21:20.040Z,11.30
2023-01-17T07:26:19.519Z,11.34
2023-01-17T07:31:17.375Z,11.40
2023-01-17T07:36:17.764Z,11.66
2023-01-17T07:41:19.213Z,11.83
2023-01-17T07:46:18.568Z,12.19
2023-01-17T07:51:17.951Z,12.78
2023-01-17T07:56:18.120Z,13.10
2023-01-17T08:01:17.847Z,13.13
2023-01-17T08:06:19.799Z,13.06
2023-01-17T08:11:17.882Z,13.02
2023-01-17T08:16:24.724Z,13.21
2023-01-17T08:21:25.909Z,13.53
2023-01-17T08:26:24.000Z,13.86
2023-01-17T08:31:25.789Z,14.48
2023-01-17T08:36:26.432Z,15.08
2023-01-17T08:41:27.542Z,15.39
2023-01-17T08:46:32.143Z,15.20
2023-01-17T08:51:37.991Z,14.87
2023-01-17T08:56:36.169Z,14.85
2023-01-17T09:01:41.921Z,15.01
2023-01-17T09:06:42.525Z,16.33
2023-01-17T09:11:41.191Z,16.89
2023-01-17T09:16:39.131Z,17.59
2023-01-17T09:21:36.959Z,18.33
2023-01-17T09:26:36.218Z,19.31
2023-01-17T09:31:34.128Z,20.42
2023-01-17T09:36:33.966Z,20.96
2023-01-17T09:41:32.904Z,21.91
2023-01-17T09:46:33.437Z,22.13
2023-01-17T09:51:31.478Z,21.99
2023-01-17T09:56:31.534Z,21.52
2023-01-17T10:01:33.611Z,20.92
2023-01-17T10:06:44.327Z,20.72
2023-01-17T10:11:57.031Z,20.74
2023-01-17T10:16:59.467Z,20.31
2023-01-17T10:22:10.252Z,20.55
2023-01-17T10:27:15.851Z,20.77
2023-01-17T10:32:13.961Z,19.79
2023-01-17T10:37:17.641Z,20.94
2023-01-17T10:42:20.243Z,21.88
2023-01-17T10:47:21.373Z,21.95
2023-01-17T10:52:24.912Z,20.50
2023-01-17T10:57:23.532Z,20.78
2023-01-17T11:02:24.731Z,20.44
2023-01-17T11:07:25.447Z,19.55
2023-01-17T11:12:29.096Z,19.99
2023-01-17T11:17:27.865Z,20.84
2023-01-17T11:22:27.209Z,21.98
2023-01-17T11:27:25.876Z,21.18
2023-01-17T11:32:32.261Z,22.44
2023-01-17T11:37:31.737Z,22.12
2023-01-17T11:42:34.494Z,21.56
2023-01-17T11:47:32.349Z,21.11
2023-01-17T11:52:37.570Z,19.77
2023-01-17T11:57:37.149Z,21.34
2023-01-17T12:02:39.096Z,20.87
2023-01-17T12:07:46.597Z,20.85
2023-01-17T12:13:09.552Z,20.41
2023-01-17T12:18:16.255Z,20.78
2023-01-17T12:23:27.840Z,21.27
2023-01-17T12:28:38.136Z,20.12
2023-01-17T12:33:39.980Z,19.47
2023-01-17T12:38:40.498Z,19.16
2023-01-17T12:43:41.090Z,19.26
2023-01-17T12:48:39.594Z,20.03
2023-01-17T12:53:41.791Z,19.89
2023-01-17T12:58:43.558Z,19.73
2023-01-17T13:03:46.860Z,19.00
2023-01-17T13:08:49.926Z,18.72
2023-01-17T13:13:51.454Z,18.12
2023-01-17T13:18:49.847Z,17.72
2023-01-17T13:23:55.952Z,17.55
2023-01-17T13:28:57.112Z,17.17
2023-01-17T13:34:12.523Z,16.96
2023-01-17T13:39:37.838Z,17.14
2023-01-17T13:44:35.765Z,17.15
2023-01-17T13:49:35.308Z,17.22
2023-01-17T13:54:34.635Z,16.95
2023-01-17T13:59:32.514Z,16.77
2023-01-17T14:04:48.258Z,16.88
2023-01-17T14:09:50.047Z,16.78
2023-01-17T14:14:49.952Z,16.74
2023-01-17T14:19:49.456Z,16.41
2023-01-17T14:25:00.175Z,16.31
2023-01-17T14:29:59.556Z,16.19
2023-01-17T14:34:58.340Z,16.15
2023-01-17T14:39:56.561Z,16.15
2023-01-17T14:45:00.583Z,16.08
2023-01-17T14:50:10.320Z,15.92
2023-01-17T14:55:15.674Z,16.03
2023-01-17T15:00:19.000Z,15.82
2023-01-17T15:05:17.871Z,15.72
2023-01-17T15:10:16.711Z,15.75
2023-01-17T15:15:33.031Z,15.49
2023-01-17T15:20:31.332Z,15.42
2023-01-17T15:25:29.252Z,15.41
2023-01-17T15:30:27.157Z,15.51
2023-01-17T15:35:28.387Z,15.50
2023-01-17T15:40:28.346Z,15.48
2023-01-17T15:45:30.277Z,15.47
2023-01-17T15:50:31.364Z,15.25
2023-01-17T15:55:31.735Z,15.19
2023-01-17T16:00:37.537Z,15.04
2023-01-17T16:05:43.822Z,14.79
2023-01-17T16:10:42.018Z,14.71
2023-01-17T16:15:41.443Z,14.58
2023-01-17T16:20:42.983Z,14.63
2023-01-17T16:25:40.926Z,14.70
2023-01-17T16:30:39.048Z,14.73
2023-01-17T16:35:36.992Z,14.78
2023-01-17T16:40:43.968Z,14.87
2023-01-17T16:45:43.073Z,14.77
2023-01-17T16:50:42.106Z,15.02
2023-01-17T16:55:42.285Z,14.90
2023-01-17T17:00:41.035Z,14.64
2023-01-17T17:05:38.876Z,14.58
2023-01-17T17:10:36.945Z,14.55
2023-01-17T17:15:36.352Z,14.84
2023-01-17T17:20:34.218Z,14.88
2023-01-17T17:25:32.110Z,14.51
2023-01-17T17:30:31.333Z,14.81
2023-01-17T17:35:30.635Z,14.76
2023-01-17T17:40:28.455Z,14.70
2023-01-17T17:45:26.447Z,14.37
2023-01-17T17:50:24.335Z,14.23
2023-01-17T17:55:24.135Z,14.24
2023-01-17T18:00:23.202Z,14.27
2023-01-17T18:05:21.172Z,14.26
2023-01-17T18:10:19.145Z,14.33
2023-01-17T18:15:18.656Z,14.38
2023-01-17T18:20:16.910Z,14.27
2023-01-17T18:25:14.867Z,14.25
2023-01-17T18:30:13.476Z,14.21
2023-01-17T18:35:12.796Z,14.12
2023-01-17T18:40:11.709Z,14.08
2023-01-17T18:45:10.043Z,14.10
2023-01-17T18:50:08.726Z,14.13
2023-01-17T18:55:08.394Z,14.17
2023-01-17T19:00:07.713Z,14.22
2023-01-17T19:05:08.678Z,14.19
2023-01-17T19:10:08.756Z,14.27
2023-01-17T19:15:07.099Z,14.29
2023-01-17T19:20:07.160Z,14.26
2023-01-17T19:25:05.448Z,14.30
2023-01-17T19:30:05.049Z,14.32
2023-01-17T19:35:02.975Z,14.23
2023-01-17T19:40:00.956Z,14.15
2023-01-17T19:44:58.920Z,14.10
2023-01-17T19:49:58.226Z,14.02
2023-01-17T19:54:56.058Z,13.99
2023-01-17T19:59:56.073Z,13.92
2023-01-17T20:04:53.987Z,13.93
2023-01-17T20:09:53.270Z,13.88
2023-01-17T20:14:52.132Z,13.84
2023-01-17T20:19:52.189Z,13.88
2023-01-17T20:24:52.830Z,13.81
2023-01-17T20:29:52.097Z,13.94
2023-01-17T20:34:50.766Z,14.06
2023-01-17T20:39:48.621Z,14.18
2023-01-17T20:44:49.334Z,13.97
2023-01-17T20:49:48.807Z,14.09
2023-01-17T20:54:48.609Z,14.31
2023-01-17T20:59:48.399Z,14.25
2023-01-17T21:04:46.299Z,14.25
2023-01-17T21:09:45.553Z,14.41
2023-01-17T21:14:43.358Z,14.43
2023-01-17T21:19:41.612Z,14.24
2023-01-17T21:24:41.299Z,14.26
2023-01-17T21:29:57.128Z,13.95
2023-01-17T21:34:55.841Z,13.97
2023-01-17T21:39:54.986Z,14.07
2023-01-17T21:44:55.850Z,14.24
2023-01-17T21:49:53.777Z,14.11
2023-01-17T21:55:08.889Z,13.99
2023-01-17T22:00:18.698Z,14.04
2023-01-17T22:05:22.921Z,14.06
2023-01-17T22:10:21.357Z,14.02
2023-01-17T22:15:20.600Z,13.77
2023-01-17T22:20:20.934Z,13.85
2023-01-17T22:25:19.022Z,13.71
2023-01-17T22:30:17.003Z,13.63
2023-01-17T22:35:16.411Z,13.53
2023-01-17T22:40:14.442Z,13.61
2023-01-17T22:45:12.778Z,13.61
2023-01-17T22:50:11.659Z,13.66
2023-01-17T22:55:12.201Z,13.79
2023-01-17T23:00:14.731Z,13.95
2023-01-17T23:05:12.767Z,14.05
2023-01-17T23:10:34.194Z,14.18
2023-01-17T23:15:51.566Z,14.26
2023-01-17T23:20:49.454Z,14.37
2023-01-17T23:25:48.693Z,14.58
2023-01-17T23:30:47.979Z,14.60
2023-01-17T23:35:47.091Z,14.72
2023-01-17T23:41:05.685Z,14.72
2023-01-17T23:46:06.225Z,14.88
2023-01-17T23:51:15.180Z,14.84
2023-01-17T23:56:15.626Z,14.76
